createdAt,value
2022-08-30T00:00:02.096Z,17.8
2022-08-30T00:01:01.984Z,17.76
2022-08-30T00:02:02.047Z,17.76
2022-08-30T00:03:02.424Z,17.77
2022-08-30T00:04:02.612Z,17.75
2022-08-30T00:05:02.008Z,17.75
2022-08-30T00:06:02.198Z,17.74
2022-08-30T00:07:02.053Z,17.78
2022-08-30T00:08:02.415Z,17.73
2022-08-30T00:09:02.080Z,17.7
2022-08-30T00:10:02.467Z,17.68
2022-08-30T00:11:03.326Z,17.7
2022-08-30T00:12:02.283Z,17.61
2022-08-30T00:13:02.408Z,17.62
2022-08-30T00:14:02.169Z,17.62
2022-08-30T00:15:02.537Z,17.63
2022-08-30T00:16:02.494Z,17.56
2022-08-30T00:17:02.212Z,17.5
2022-08-30T00:18:02.268Z,17.52
2022-08-30T00:19:02.304Z,17.57
2022-08-30T00:20:04.067Z,17.49
2022-08-30T00:21:03.468Z,17.42
2022-08-30T00:22:02.267Z,17.38
2022-08-30T00:23:02.424Z,17.39
2022-08-30T00:24:02.481Z,17.4
2022-08-30T00:25:02.543Z,17.32
2022-08-30T00:26:02.411Z,17.27
2022-08-30T00:27:02.335Z,17.22
2022-08-30T00:28:02.679Z,17.27
2022-08-30T00:29:02.486Z,17.13
2022-08-30T00:30:02.507Z,17.08
2022-08-30T00:31:02.556Z,17.09
2022-08-30T00:32:02.736Z,17.06
2022-08-30T00:33:02.491Z,17
2022-08-30T00:34:02.411Z,16.93
2022-08-30T00:35:02.576Z,16.92
2022-08-30T00:36:03.164Z,16.93
2022-08-30T00:37:02.546Z,16.84
2022-08-30T00:38:02.458Z,16.86
2022-08-30T00:39:02.563Z,16.76
2022-08-30T00:40:03.633Z,16.75
2022-08-30T00:41:02.646Z,16.73
2022-08-30T00:42:02.767Z,16.73
2022-08-30T00:43:05.869Z,16.66
2022-08-30T00:44:02.972Z,16.61
2022-08-30T00:46:07.481Z,16.58
2022-08-30T00:47:07.673Z,16.65
2022-08-30T00:48:07.745Z,16.57
2022-08-30T00:49:09.269Z,16.52
2022-08-30T00:50:08.313Z,16.56
2022-08-30T00:51:09.345Z,16.55
2022-08-30T00:52:08.051Z,16.51
2022-08-30T00:53:09.340Z,16.46
2022-08-30T00:54:08.035Z,16.48
2022-08-30T00:55:08.377Z,16.41
2022-08-30T00:56:08.106Z,16.37
2022-08-30T00:57:08.045Z,16.29
2022-08-30T00:58:08.631Z,16.16
2022-08-30T00:59:08.150Z,16.07
2022-08-30T01:00:08.569Z,16.01
2022-08-30T01:01:08.769Z,15.93
2022-08-30T01:02:07.777Z,15.87
2022-08-30T01:03:07.675Z,15.82
2022-08-30T01:04:09.180Z,15.8
2022-08-30T01:05:08.912Z,15.76
2022-08-30T01:06:08.088Z,15.79
2022-08-30T01:07:07.960Z,15.76
2022-08-30T01:08:07.825Z,15.75
2022-08-30T01:09:08.625Z,15.7
2022-08-30T01:10:08.732Z,15.68
2022-08-30T01:11:08.217Z,15.64
2022-08-30T01:12:07.914Z,15.64
2022-08-30T01:13:08.502Z,15.55
2022-08-30T01:14:08.802Z,15.56
2022-08-30T01:15:08.688Z,15.5
2022-08-30T01:16:08.563Z,15.46
2022-08-30T01:17:08.956Z,15.46
2022-08-30T01:18:08.686Z,15.42
2022-08-30T01:20:13.312Z,15.43
2022-08-30T01:23:20.058Z,15.37
2022-08-30T01:24:19.059Z,15.35
2022-08-30T01:25:21.343Z,15.37
2022-08-30T01:26:21.810Z,15.39
2022-08-30T01:27:19.378Z,15.38
2022-08-30T01:28:21.661Z,15.46
2022-08-30T01:29:21.341Z,15.41
2022-08-30T01:30:19.471Z,15.45
2022-08-30T01:31:19.351Z,15.42
2022-08-30T01:32:21.367Z,15.44
2022-08-30T01:33:20.159Z,15.44
2022-08-30T01:34:19.382Z,15.39
2022-08-30T01:35:20.117Z,15.42
2022-08-30T01:36:19.895Z,15.37
2022-08-30T01:37:23.813Z,15.37
2022-08-30T01:38:23.915Z,15.42
2022-08-30T01:39:21.495Z,15.39
2022-08-30T01:40:21.305Z,15.39
2022-08-30T01:41:24.601Z,15.45
2022-08-30T01:42:21.980Z,15.48
2022-08-30T01:43:22.561Z,15.47
2022-08-30T01:44:21.697Z,15.49
2022-08-30T01:45:22.310Z,15.52
2022-08-30T01:46:24.257Z,15.48
2022-08-30T01:47:21.663Z,15.47
2022-08-30T01:48:28.258Z,15.45
2022-08-30T01:49:27.801Z,15.46
2022-08-30T01:50:27.016Z,15.48
2022-08-30T01:51:26.913Z,15.38
2022-08-30T01:52:26.629Z,15.38
2022-08-30T01:53:25.363Z,15.41
2022-08-30T01:54:27.494Z,15.39
2022-08-30T01:55:28.685Z,15.34
2022-08-30T01:55:52.835Z,15.27
2022-08-30T01:56:52.789Z,15.24
2022-08-30T01:57:57.871Z,15.21
2022-08-30T01:58:52.728Z,15.2
2022-08-30T01:59:52.657Z,15.18
2022-08-30T02:00:53.734Z,15.16
2022-08-30T02:01:53.156Z,15.08
2022-08-30T02:02:53.124Z,15.08
2022-08-30T02:03:54.661Z,15.04
2022-08-30T02:04:53.129Z,15.04
2022-08-30T02:05:53.016Z,15.05
2022-08-30T02:06:53.154Z,15.02
2022-08-30T02:07:53.175Z,15.03
2022-08-30T02:08:53.118Z,15.03
2022-08-30T02:09:53.803Z,15.03
2022-08-30T02:10:53.076Z,15.03
2022-08-30T02:11:53.112Z,15.08
2022-08-30T02:12:53.156Z,15.07
2022-08-30T02:13:53.298Z,15.08
2022-08-30T02:14:53.155Z,15.08
2022-08-30T02:15:53.273Z,15.07
2022-08-30T02:16:53.238Z,15.08
2022-08-30T02:17:53.194Z,15.1
2022-08-30T02:18:54.175Z,15.11
2022-08-30T02:19:53.254Z,15.12
2022-08-30T02:20:53.335Z,15.1
2022-08-30T02:21:53.269Z,15.11
2022-08-30T02:22:53.268Z,15.09
2022-08-30T02:23:53.362Z,15.1
2022-08-30T02:24:53.365Z,15.09
2022-08-30T02:25:53.798Z,15.1
2022-08-30T02:26:54.103Z,15.08
2022-08-30T02:27:53.348Z,15.06
2022-08-30T02:28:53.713Z,15.07
2022-08-30T02:29:54.053Z,15.06
2022-08-30T02:30:53.656Z,15.06
2022-08-30T02:31:53.475Z,15.06
2022-08-30T02:32:53.432Z,15.05
2022-08-30T02:33:53.474Z,15.02
2022-08-30T02:34:53.502Z,15.05
2022-08-30T02:35:53.667Z,15.04
2022-08-30T02:36:53.515Z,15.05
2022-08-30T02:37:53.880Z,15.07
2022-08-30T02:38:53.569Z,15.06
2022-08-30T02:39:53.585Z,15.05
2022-08-30T02:40:53.650Z,15.04
2022-08-30T02:41:53.636Z,15.08
2022-08-30T02:42:53.631Z,15.08
2022-08-30T02:43:53.650Z,15.04
2022-08-30T02:44:53.647Z,15.06
2022-08-30T02:45:53.971Z,15.13
2022-08-30T02:46:53.679Z,15.12
2022-08-30T02:47:53.679Z,15.07
2022-08-30T02:48:53.833Z,15.09
2022-08-30T02:49:53.788Z,15.12
2022-08-30T02:50:53.752Z,15.12
2022-08-30T02:51:53.781Z,15.14
2022-08-30T02:52:54.448Z,15.06
2022-08-30T02:53:53.800Z,15.08
2022-08-30T02:54:53.809Z,15.02
2022-08-30T02:55:54.452Z,15.06
2022-08-30T02:56:53.837Z,15.06
2022-08-30T02:57:53.863Z,15.07
2022-08-30T02:58:54.313Z,15.04
2022-08-30T02:59:53.908Z,15.05
2022-08-30T03:00:54.009Z,15.07
2022-08-30T03:01:54.033Z,15.03
2022-08-30T03:02:54.264Z,15.06
2022-08-30T03:03:54.143Z,15.05
2022-08-30T03:04:54.023Z,15.09
2022-08-30T03:05:54.265Z,15.05
2022-08-30T03:06:54.345Z,15.03
2022-08-30T03:07:54.069Z,15.03
2022-08-30T03:08:54.078Z,15.02
2022-08-30T03:09:54.091Z,14.99
2022-08-30T03:10:54.102Z,15.01
2022-08-30T03:11:54.142Z,15
2022-08-30T03:12:54.505Z,14.97
2022-08-30T03:13:54.185Z,14.97
2022-08-30T03:14:54.167Z,15
2022-08-30T03:15:54.302Z,14.99
2022-08-30T03:16:54.987Z,15
2022-08-30T03:17:55.072Z,15.02
2022-08-30T03:18:54.251Z,15.03
2022-08-30T03:19:54.247Z,14.95
2022-08-30T03:20:55.009Z,14.96
2022-08-30T03:21:54.316Z,15
2022-08-30T03:22:54.338Z,15.05
2022-08-30T03:23:54.327Z,15.05
2022-08-30T03:24:54.506Z,15.03
2022-08-30T03:25:54.361Z,15.02
2022-08-30T03:26:54.501Z,15.04
2022-08-30T03:27:54.484Z,15.04
2022-08-30T03:28:54.452Z,15.04
2022-08-30T03:29:54.842Z,15.04
2022-08-30T03:30:54.448Z,15.04
2022-08-30T03:31:54.543Z,14.93
2022-08-30T03:32:54.525Z,14.95
2022-08-30T03:33:54.662Z,14.88
2022-08-30T03:34:54.496Z,14.89
2022-08-30T03:35:54.502Z,14.9
2022-08-30T03:36:55.442Z,14.89
2022-08-30T03:37:55.881Z,14.88
2022-08-30T03:38:54.572Z,14.84
2022-08-30T03:39:55.303Z,14.84
2022-08-30T03:40:54.592Z,14.78
2022-08-30T03:41:54.633Z,14.77
2022-08-30T03:42:54.668Z,14.8
2022-08-30T03:43:59.988Z,14.78
2022-08-30T03:44:56.669Z,14.78
2022-08-30T03:45:56.694Z,14.78
2022-08-30T03:46:56.569Z,14.79
2022-08-30T03:47:56.601Z,14.78
2022-08-30T03:48:56.577Z,14.79
2022-08-30T03:49:57.355Z,14.77
2022-08-30T03:50:56.735Z,14.79
2022-08-30T03:51:56.963Z,14.78
2022-08-30T03:52:57.301Z,14.8
2022-08-30T03:53:56.697Z,14.82
2022-08-30T03:54:56.697Z,14.81
2022-08-30T03:55:57.292Z,14.81
2022-08-30T03:56:56.755Z,14.81
2022-08-30T03:57:56.879Z,14.79
2022-08-30T03:58:57.067Z,14.82
2022-08-30T03:59:56.802Z,14.82
2022-08-30T04:00:56.915Z,14.82
2022-08-30T04:01:56.895Z,14.82
2022-08-30T04:02:56.815Z,14.85
2022-08-30T04:03:56.835Z,14.89
2022-08-30T04:04:56.858Z,14.88
2022-08-30T04:05:56.875Z,14.92
2022-08-30T04:06:57.013Z,14.94
2022-08-30T04:07:56.893Z,14.91
2022-08-30T04:08:56.891Z,14.93
2022-08-30T04:09:56.978Z,14.93
2022-08-30T04:10:56.982Z,14.94
2022-08-30T04:11:56.965Z,14.9
2022-08-30T04:12:56.988Z,14.94
2022-08-30T04:13:56.992Z,14.93
2022-08-30T04:14:57.000Z,14.99
2022-08-30T04:15:57.117Z,14.97
2022-08-30T04:16:57.176Z,14.93
2022-08-30T04:17:57.085Z,14.93
2022-08-30T04:18:57.047Z,14.9
2022-08-30T04:19:57.229Z,14.94
2022-08-30T04:20:57.247Z,14.9
2022-08-30T04:21:57.221Z,14.92
2022-08-30T04:22:57.182Z,14.89
2022-08-30T04:23:57.188Z,14.92
2022-08-30T04:24:57.199Z,14.94
2022-08-30T04:25:57.160Z,14.92
2022-08-30T04:26:57.194Z,14.92
2022-08-30T04:27:57.269Z,14.91
2022-08-30T04:28:57.576Z,14.91
2022-08-30T04:29:58.454Z,14.9
2022-08-30T04:30:57.255Z,14.89
2022-08-30T04:31:57.372Z,14.85
2022-08-30T04:32:58.936Z,14.87
2022-08-30T04:33:57.308Z,14.77
2022-08-30T04:34:57.647Z,14.75
2022-08-30T04:36:01.835Z,14.77
2022-08-30T04:36:58.045Z,14.8
2022-08-30T04:37:58.081Z,14.74
2022-08-30T04:38:58.039Z,14.76
2022-08-30T04:39:58.309Z,14.77
2022-08-30T04:40:58.091Z,14.72
2022-08-30T04:41:58.215Z,14.72
2022-08-30T04:42:58.145Z,14.75
2022-08-30T04:43:58.297Z,14.77
2022-08-30T04:44:58.732Z,14.84
2022-08-30T04:45:58.247Z,14.84
2022-08-30T04:46:58.227Z,14.88
2022-08-30T04:47:58.214Z,14.87
2022-08-30T04:48:58.215Z,14.85
2022-08-30T04:49:58.643Z,14.84
2022-08-30T04:50:58.237Z,14.82
2022-08-30T04:51:58.286Z,14.84
2022-08-30T04:52:58.353Z,14.81
2022-08-30T04:53:58.320Z,14.81
2022-08-30T04:54:58.895Z,14.83
2022-08-30T04:55:58.491Z,14.88
2022-08-30T04:56:58.380Z,14.78
2022-08-30T04:57:58.351Z,14.75
2022-08-30T04:58:58.554Z,14.74
2022-08-30T04:59:58.418Z,14.74
2022-08-30T05:00:58.450Z,14.72
2022-08-30T05:01:58.766Z,14.74
2022-08-30T05:02:58.524Z,14.71
2022-08-30T05:03:58.830Z,14.73
2022-08-30T05:04:58.457Z,14.71
2022-08-30T05:05:58.497Z,14.68
2022-08-30T05:06:58.502Z,14.7
2022-08-30T05:07:58.793Z,14.72
2022-08-30T05:08:58.690Z,14.72
2022-08-30T05:09:58.899Z,14.72
2022-08-30T05:10:58.587Z,14.71
2022-08-30T05:11:58.602Z,14.67
2022-08-30T05:12:58.597Z,14.69
2022-08-30T05:13:58.619Z,14.69
2022-08-30T05:14:58.701Z,14.7
2022-08-30T05:15:58.763Z,14.7
2022-08-30T05:16:58.711Z,14.71
2022-08-30T05:17:58.734Z,14.71
2022-08-30T05:18:58.734Z,14.69
2022-08-30T05:20:00.853Z,14.67
2022-08-30T05:22:00.190Z,14.69
2022-08-30T05:23:00.636Z,14.72
2022-08-30T05:24:00.732Z,14.72
2022-08-30T05:25:00.243Z,14.74
2022-08-30T05:26:04.249Z,14.73
2022-08-30T05:27:00.543Z,14.74
2022-08-30T05:28:00.483Z,14.74
2022-08-30T05:29:00.572Z,14.71
2022-08-30T05:30:00.588Z,14.72
2022-08-30T05:31:00.759Z,14.72
2022-08-30T05:32:00.834Z,14.71
2022-08-30T05:33:00.694Z,14.75
2022-08-30T05:34:00.809Z,14.77
2022-08-30T05:35:00.595Z,14.78
2022-08-30T05:36:00.562Z,14.77
2022-08-30T05:37:00.594Z,14.77
2022-08-30T05:38:00.691Z,14.81
2022-08-30T05:39:00.725Z,14.82
2022-08-30T05:40:00.685Z,14.83
2022-08-30T05:41:01.734Z,14.84
2022-08-30T05:42:01.517Z,14.85
2022-08-30T05:43:01.479Z,14.88
2022-08-30T05:44:02.019Z,14.94
2022-08-30T05:45:02.327Z,14.93
2022-08-30T05:46:05.880Z,14.94
2022-08-30T05:47:02.052Z,14.99
2022-08-30T05:48:02.345Z,14.96
2022-08-30T05:49:03.690Z,14.99
2022-08-30T05:50:02.327Z,15
2022-08-30T05:52:06.539Z,15.02
2022-08-30T05:53:06.570Z,15.04
2022-08-30T05:54:06.982Z,15.01
2022-08-30T05:55:07.222Z,15.04
2022-08-30T05:56:08.526Z,15.05
2022-08-30T05:57:06.901Z,15.04
2022-08-30T05:58:06.640Z,15.04
2022-08-30T05:59:07.209Z,15.05
2022-08-30T06:00:08.778Z,15.1
2022-08-30T06:01:06.909Z,15.11
2022-08-30T06:02:06.776Z,15.12
2022-08-30T06:03:06.782Z,15.13
2022-08-30T06:04:07.811Z,15.11
2022-08-30T06:05:07.246Z,15.17
2022-08-30T06:06:07.077Z,15.16
2022-08-30T06:07:07.333Z,15.18
2022-08-30T06:08:06.804Z,15.2
2022-08-30T06:09:08.457Z,15.2
2022-08-30T06:10:06.979Z,15.24
2022-08-30T06:11:06.810Z,15.2
2022-08-30T06:12:07.302Z,15.19
2022-08-30T06:13:06.998Z,15.22
2022-08-30T06:14:06.940Z,15.25
2022-08-30T06:15:07.392Z,15.26
2022-08-30T06:16:07.537Z,15.28
2022-08-30T06:17:07.023Z,15.32
2022-08-30T06:18:06.953Z,15.3
2022-08-30T06:19:08.052Z,15.28
2022-08-30T06:20:07.709Z,15.28
2022-08-30T06:21:07.179Z,15.3
2022-08-30T06:22:07.050Z,15.32
2022-08-30T06:23:07.046Z,15.4
2022-08-30T06:24:07.908Z,15.43
2022-08-30T06:25:07.621Z,15.36
2022-08-30T06:26:07.237Z,15.38
2022-08-30T06:27:07.114Z,15.43
2022-08-30T06:28:07.185Z,15.42
2022-08-30T06:29:07.722Z,15.4
2022-08-30T06:30:08.287Z,15.43
2022-08-30T06:31:07.771Z,15.48
2022-08-30T06:32:07.325Z,15.51
2022-08-30T06:33:07.331Z,15.49
2022-08-30T06:34:07.459Z,15.59
2022-08-30T06:35:07.671Z,15.5
2022-08-30T06:36:09.457Z,15.52
2022-08-30T06:37:07.246Z,15.5
2022-08-30T06:38:07.313Z,15.55
2022-08-30T06:39:07.324Z,15.66
2022-08-30T06:40:07.829Z,15.62
2022-08-30T06:41:11.933Z,15.7
2022-08-30T06:42:08.110Z,15.72
2022-08-30T06:43:08.159Z,15.74
2022-08-30T06:44:08.756Z,15.7
2022-08-30T06:45:10.451Z,15.76
2022-08-30T06:46:10.471Z,15.76
2022-08-30T06:47:08.248Z,15.76
2022-08-30T06:48:08.320Z,15.69
2022-08-30T06:49:08.221Z,15.72
2022-08-30T06:50:11.772Z,15.75
2022-08-30T06:51:08.619Z,15.77
2022-08-30T06:52:08.444Z,15.9
2022-08-30T06:53:09.235Z,15.92
2022-08-30T06:54:10.671Z,16.02
2022-08-30T06:55:10.065Z,15.93
2022-08-30T06:56:09.564Z,15.91
2022-08-30T06:57:08.651Z,15.86
2022-08-30T06:58:08.617Z,15.89
2022-08-30T06:59:08.515Z,15.9
2022-08-30T07:00:09.874Z,15.87
2022-08-30T07:01:12.257Z,15.89
2022-08-30T07:02:08.739Z,15.89
2022-08-30T07:03:08.653Z,15.94
2022-08-30T07:04:08.573Z,15.92
2022-08-30T07:05:09.694Z,15.92
2022-08-30T07:06:09.227Z,15.84
2022-08-30T07:07:11.470Z,15.93
2022-08-30T07:08:08.631Z,15.88
2022-08-30T07:09:08.645Z,15.92
2022-08-30T07:10:09.644Z,15.92
2022-08-30T07:11:09.144Z,15.88
2022-08-30T07:12:09.651Z,15.96
2022-08-30T07:13:08.835Z,15.95
2022-08-30T07:14:09.058Z,15.97
2022-08-30T07:15:09.286Z,16.03
2022-08-30T07:16:10.617Z,16.02
2022-08-30T07:17:09.035Z,16.1
2022-08-30T07:18:09.626Z,15.98
2022-08-30T07:19:08.827Z,16.03
2022-08-30T07:20:11.546Z,16.13
2022-08-30T07:21:13.191Z,16.11
2022-08-30T07:22:11.594Z,16.06
2022-08-30T07:23:11.902Z,16.08
2022-08-30T07:24:12.609Z,16.1
2022-08-30T07:25:12.034Z,16.13
2022-08-30T07:26:13.574Z,16.04
2022-08-30T07:27:11.854Z,16.04
2022-08-30T07:28:12.362Z,16.04
2022-08-30T07:29:11.699Z,16.06
2022-08-30T07:30:12.448Z,16.07
2022-08-30T07:31:12.317Z,16.13
2022-08-30T07:32:11.748Z,16.14
2022-08-30T07:33:11.809Z,16.19
2022-08-30T07:34:11.793Z,16.21
2022-08-30T07:35:11.854Z,16.21
2022-08-30T07:36:11.847Z,16.17
2022-08-30T07:37:17.949Z,16.28
2022-08-30T07:38:15.010Z,16.3
2022-08-30T07:39:14.559Z,16.22
2022-08-30T07:40:14.645Z,16.27
2022-08-30T07:42:15.415Z,16.39
2022-08-30T07:43:15.014Z,16.48
2022-08-30T07:44:15.006Z,16.44
2022-08-30T07:45:15.107Z,16.56
2022-08-30T07:46:15.153Z,16.69
2022-08-30T07:47:15.105Z,16.75
2022-08-30T07:48:15.266Z,16.73
2022-08-30T07:49:15.103Z,16.73
2022-08-30T07:50:15.222Z,16.6
2022-08-30T07:51:17.412Z,16.69
2022-08-30T07:52:15.163Z,16.62
2022-08-30T07:53:15.198Z,16.71
2022-08-30T07:54:15.164Z,16.98
2022-08-30T07:55:15.438Z,16.89
2022-08-30T07:56:15.809Z,16.91
2022-08-30T07:57:15.958Z,17.02
2022-08-30T07:58:15.432Z,16.81
2022-08-30T07:59:15.253Z,16.79
2022-08-30T08:00:15.608Z,16.57
2022-08-30T08:01:16.302Z,16.66
2022-08-30T08:02:15.465Z,16.91
2022-08-30T08:03:15.412Z,16.88
2022-08-30T08:04:15.389Z,16.98
2022-08-30T08:05:17.722Z,16.94
2022-08-30T08:06:17.768Z,16.89
2022-08-30T08:07:15.794Z,16.98
2022-08-30T08:08:15.984Z,16.98
2022-08-30T08:09:15.675Z,16.97
2022-08-30T08:10:15.887Z,16.92
2022-08-30T08:11:20.396Z,16.86
2022-08-30T08:12:16.568Z,16.76
2022-08-30T08:13:16.762Z,16.66
2022-08-30T08:14:16.811Z,16.89
2022-08-30T08:15:16.645Z,16.72
2022-08-30T08:16:16.706Z,16.75
2022-08-30T08:17:16.774Z,16.82
2022-08-30T08:18:18.936Z,16.83
2022-08-30T08:19:16.685Z,16.97
2022-08-30T08:20:16.916Z,16.91
2022-08-30T08:21:16.841Z,16.93
2022-08-30T08:22:21.235Z,17.08
2022-08-30T08:23:17.987Z,17.1
2022-08-30T08:24:18.040Z,17.24
2022-08-30T08:25:18.553Z,17.25
2022-08-30T08:26:18.656Z,17.16
2022-08-30T08:27:18.040Z,16.95
2022-08-30T08:28:18.733Z,16.95
2022-08-30T08:29:18.110Z,16.97
2022-08-30T08:30:19.430Z,17.03
2022-08-30T08:31:19.936Z,17.02
2022-08-30T08:32:18.152Z,17.14
2022-08-30T08:33:18.783Z,17.16
2022-08-30T08:34:18.190Z,17.16
2022-08-30T08:35:18.328Z,17.1
2022-08-30T08:36:18.180Z,17.21
2022-08-30T08:37:18.207Z,17.23
2022-08-30T08:38:18.424Z,17.12
2022-08-30T08:39:18.248Z,17.12
2022-08-30T08:40:19.297Z,17.08
2022-08-30T08:43:26.889Z,17.16
2022-08-30T08:46:36.215Z,17.44
2022-08-30T08:47:41.136Z,17.57
2022-08-30T08:48:58.947Z,17.29
2022-08-30T08:49:44.043Z,17.14
2022-08-30T08:50:41.443Z,16.98
2022-08-30T08:51:41.426Z,16.99
2022-08-30T08:53:47.889Z,16.98
2022-08-30T08:54:48.632Z,16.96
2022-08-30T08:55:49.546Z,17.03
2022-08-30T08:56:46.087Z,16.91
2022-08-30T08:57:45.881Z,16.85
2022-08-30T08:58:47.628Z,16.92
2022-08-30T08:59:45.928Z,16.96
2022-08-30T09:00:45.966Z,17
2022-08-30T09:01:47.205Z,17.02
2022-08-30T09:02:48.109Z,16.94
2022-08-30T09:03:46.775Z,16.92
2022-08-30T09:04:46.201Z,16.93
2022-08-30T09:05:46.446Z,17.04
2022-08-30T09:08:52.790Z,17.15
2022-08-30T09:09:52.881Z,17.05
2022-08-30T09:11:57.335Z,16.97
2022-08-30T09:13:00.033Z,16.89
2022-08-30T09:14:01.439Z,16.85
2022-08-30T09:15:03.232Z,16.89
2022-08-30T09:15:59.967Z,16.88
2022-08-30T09:17:09.732Z,16.96
2022-08-30T09:18:05.890Z,16.98
2022-08-30T09:19:03.581Z,16.98
2022-08-30T09:20:03.865Z,17.01
2022-08-30T09:21:07.261Z,16.91
2022-08-30T09:24:05.749Z,16.87
2022-08-30T09:25:07.729Z,16.93
2022-08-30T09:26:08.752Z,17.02
2022-08-30T09:28:11.138Z,17.09
2022-08-30T09:29:16.216Z,17.04
2022-08-30T09:33:21.231Z,16.93
2022-08-30T09:34:22.092Z,16.93
2022-08-30T09:35:22.892Z,17.06
2022-08-30T09:36:28.350Z,17.13
2022-08-30T09:37:30.646Z,17.08
2022-08-30T09:38:31.289Z,17.02
2022-08-30T09:39:32.783Z,17.2
2022-08-30T09:40:36.199Z,17.13
2022-08-30T09:41:37.389Z,17.17
2022-08-30T09:42:33.566Z,17.15
2022-08-30T09:44:36.604Z,17.28
2022-08-30T09:45:35.588Z,17.24
2022-08-30T09:46:34.072Z,17.23
2022-08-30T09:47:33.661Z,17.26
2022-08-30T09:49:37.074Z,17.55
2022-08-30T09:50:36.637Z,17.5
2022-08-30T09:51:40.278Z,17.64
2022-08-30T09:57:56.791Z,17.47
2022-08-30T10:20:37.610Z,17.81
2022-08-30T10:22:43.907Z,17.81
2022-08-30T10:24:53.459Z,17.69
2022-08-30T10:25:47.949Z,17.87
2022-08-30T10:26:49.842Z,17.78
2022-08-30T10:27:55.978Z,17.83
2022-08-30T10:30:56.390Z,17.77
2022-08-30T10:31:56.060Z,17.78
2022-08-30T10:33:00.730Z,17.76
2022-08-30T10:34:00.492Z,17.65
2022-08-30T10:35:03.637Z,17.76
2022-08-30T10:36:01.842Z,17.77
2022-08-30T10:38:11.841Z,17.66
2022-08-30T10:39:10.070Z,17.6
2022-08-30T10:45:23.181Z,17.57
2022-08-30T10:48:30.589Z,17.54
2022-08-30T10:49:30.072Z,17.51
2022-08-30T10:50:34.915Z,17.65
2022-08-30T10:51:36.550Z,17.68
2022-08-30T10:52:39.029Z,17.64
2022-08-30T10:53:41.041Z,17.62
2022-08-30T10:55:41.559Z,17.62
2022-08-30T10:56:42.746Z,17.55
2022-08-30T10:57:42.874Z,17.52
2022-08-30T10:58:40.681Z,17.6
2022-08-30T10:59:46.639Z,17.47
2022-08-30T11:07:00.484Z,17.46
2022-08-30T11:09:03.164Z,17.47
2022-08-30T11:13:16.008Z,17.35
2022-08-30T11:14:15.539Z,17.35
2022-08-30T11:15:22.898Z,17.25
2022-08-30T11:16:16.397Z,17.29
2022-08-30T11:18:15.829Z,17.35
2022-08-30T11:19:24.319Z,17.39
2022-08-30T11:22:30.288Z,17.31
2022-08-30T11:23:35.998Z,17.1
2022-08-30T11:24:27.245Z,17.14
2022-08-30T11:31:40.678Z,16.59
2022-08-30T11:33:48.932Z,16.5
2022-08-30T11:34:55.057Z,16.51
2022-08-30T11:35:50.864Z,16.39
2022-08-30T11:37:49.168Z,16.21
2022-08-30T11:39:53.021Z,16.13
2022-08-30T11:52:27.083Z,15.61
2022-08-30T12:00:52.612Z,15.46
2022-08-30T12:01:51.746Z,15.42
2022-08-30T12:04:55.364Z,15.35
2022-08-30T12:05:59.707Z,15.43
2022-08-30T12:07:00.297Z,15.35
2022-08-30T12:07:58.705Z,15.27
2022-08-30T12:09:02.500Z,15.24
2022-08-30T12:10:00.633Z,15.25
2022-08-30T12:12:03.633Z,15.18
2022-08-30T12:13:01.031Z,15.09
2022-08-30T12:14:02.118Z,15.04
2022-08-30T12:15:01.058Z,15.07
2022-08-30T12:16:02.075Z,15.06
2022-08-30T12:17:02.558Z,15.11
2022-08-30T12:18:01.230Z,15.06
2022-08-30T12:20:14.324Z,15.08
2022-08-30T12:22:17.209Z,14.95
2022-08-30T12:24:31.754Z,14.87
2022-08-30T12:25:27.555Z,14.91
2022-08-30T12:26:35.335Z,14.88
2022-08-30T12:27:32.580Z,14.94
2022-08-30T12:28:29.746Z,14.87
2022-08-30T12:29:31.099Z,14.86
2022-08-30T12:30:29.820Z,14.84
2022-08-30T12:31:29.871Z,14.8
2022-08-30T12:32:30.621Z,14.83
2022-08-30T12:33:41.530Z,14.86
2022-08-30T12:35:35.686Z,14.86
2022-08-30T12:36:37.553Z,14.88
2022-08-30T12:37:36.914Z,14.87
2022-08-30T12:38:35.462Z,14.93
2022-08-30T12:39:37.333Z,14.94
2022-08-30T12:40:35.597Z,14.97
2022-08-30T12:41:35.911Z,14.96
2022-08-30T12:42:41.771Z,15
2022-08-30T12:43:47.334Z,14.94
2022-08-30T12:44:46.259Z,14.84
2022-08-30T12:45:50.904Z,14.93
2022-08-30T12:46:49.922Z,14.89
2022-08-30T12:47:59.679Z,14.89
2022-08-30T12:48:51.389Z,14.89
2022-08-30T12:49:52.626Z,14.93
2022-08-30T12:50:56.496Z,14.92
2022-08-30T12:51:55.104Z,14.93
2022-08-30T12:56:08.827Z,15
2022-08-30T12:57:25.667Z,14.95
2022-08-30T12:58:10.642Z,14.94
2022-08-30T12:59:07.612Z,14.88
2022-08-30T13:04:20.874Z,15.01
2022-08-30T13:07:25.853Z,14.98
2022-08-30T13:08:28.054Z,14.95
2022-08-30T13:09:32.639Z,14.93
2022-08-30T13:10:25.159Z,14.87
2022-08-30T13:11:29.545Z,14.84
2022-08-30T13:12:27.692Z,14.88
2022-08-30T13:13:28.395Z,14.96
2022-08-30T13:14:42.313Z,14.91
2022-08-30T13:15:32.287Z,14.88
2022-08-30T13:16:36.812Z,14.89
2022-08-30T13:17:34.111Z,14.95
2022-08-30T13:18:34.041Z,14.89
2022-08-30T13:19:35.609Z,14.93
2022-08-30T13:20:34.347Z,14.99
2022-08-30T13:21:34.785Z,14.95
2022-08-30T13:22:35.752Z,14.96
2022-08-30T13:23:34.067Z,15.11
2022-08-30T13:24:34.085Z,15.09
2022-08-30T13:25:34.663Z,14.93
2022-08-30T13:26:36.250Z,14.94
2022-08-30T13:27:36.793Z,14.95
2022-08-30T13:29:36.831Z,14.93
2022-08-30T13:30:36.897Z,14.98
2022-08-30T13:31:37.202Z,14.95
2022-08-30T13:32:38.797Z,14.98
2022-08-30T13:33:37.084Z,15.03
2022-08-30T13:34:36.983Z,15.07
2022-08-30T13:35:37.004Z,15.11
2022-08-30T13:36:39.516Z,15.16
2022-08-30T13:37:50.059Z,15.14
2022-08-30T13:38:43.312Z,15.14
2022-08-30T13:39:43.313Z,15.12
2022-08-30T13:40:43.372Z,15.14
2022-08-30T13:41:43.722Z,15.09
2022-08-30T13:42:44.069Z,15.09
2022-08-30T13:44:44.671Z,15.14
2022-08-30T13:45:44.695Z,15.15
2022-08-30T13:46:53.461Z,15.1
2022-08-30T13:47:46.296Z,15.09
2022-08-30T13:48:45.845Z,15.06
2022-08-30T13:49:45.849Z,15.2
2022-08-30T13:50:45.788Z,15.21
2022-08-30T13:52:03.437Z,15.35
2022-08-30T13:52:47.667Z,15.43
2022-08-30T13:53:55.081Z,15.18
2022-08-30T13:54:53.746Z,15.15
2022-08-30T13:55:52.397Z,15.15
2022-08-30T13:56:53.136Z,15.13
2022-08-30T13:57:53.967Z,15.16
2022-08-30T13:58:52.186Z,15.2
2022-08-30T13:59:52.264Z,15.24
2022-08-30T14:00:53.852Z,15.27
2022-08-30T14:02:11.431Z,15.18
2022-08-30T14:02:54.923Z,15.29
2022-08-30T14:04:54.101Z,15.3
2022-08-30T14:06:04.957Z,15.37
2022-08-30T14:07:56.719Z,15.45
2022-08-30T14:09:02.866Z,15.37
2022-08-30T14:11:01.427Z,15.34
2022-08-30T14:12:01.340Z,15.51
2022-08-30T14:13:08.486Z,15.67
2022-08-30T14:14:39.074Z,15.49
2022-08-30T14:15:07.026Z,15.52
2022-08-30T14:17:08.719Z,15.51
2022-08-30T14:18:08.886Z,15.64
2022-08-30T14:19:09.811Z,15.63
2022-08-30T14:20:09.968Z,15.55
2022-08-30T14:21:08.856Z,15.48
2022-08-30T14:22:08.800Z,15.42
2022-08-30T14:23:10.257Z,15.4
2022-08-30T14:24:08.852Z,15.4
2022-08-30T14:25:09.189Z,15.52
2022-08-30T14:26:11.362Z,15.63
2022-08-30T14:27:08.859Z,15.64
2022-08-30T14:28:09.679Z,15.62
2022-08-30T14:29:10.257Z,15.53
2022-08-30T14:30:09.349Z,15.68
2022-08-30T14:31:09.173Z,15.79
2022-08-30T14:32:08.989Z,15.92
2022-08-30T14:33:09.202Z,15.82
2022-08-30T14:34:10.960Z,16
2022-08-30T14:35:09.177Z,15.92
2022-08-30T14:36:15.271Z,15.88
2022-08-30T14:37:12.197Z,15.67
2022-08-30T14:38:11.930Z,15.69
2022-08-30T14:39:13.938Z,15.75
2022-08-30T14:40:12.077Z,15.7
2022-08-30T14:41:11.918Z,15.74
2022-08-30T14:42:11.955Z,15.73
2022-08-30T14:43:15.170Z,15.66
2022-08-30T14:44:16.663Z,15.63
2022-08-30T14:45:15.397Z,15.61
2022-08-30T14:46:15.354Z,15.6
2022-08-30T14:47:15.233Z,15.49
2022-08-30T14:48:15.319Z,15.48
2022-08-30T14:49:15.623Z,15.52
2022-08-30T14:50:15.428Z,15.61
2022-08-30T14:51:17.176Z,15.45
2022-08-30T14:52:15.295Z,15.49
2022-08-30T14:53:15.345Z,15.53
2022-08-30T14:54:16.514Z,15.34
2022-08-30T14:55:15.348Z,15.31
2022-08-30T14:56:19.632Z,15.29
2022-08-30T14:57:16.224Z,15.21
2022-08-30T14:58:16.313Z,15.12
2022-08-30T14:59:16.536Z,15.1
2022-08-30T15:00:16.305Z,15.12
2022-08-30T15:01:16.328Z,15.08
2022-08-30T15:02:16.485Z,15.05
2022-08-30T15:03:16.234Z,14.99
2022-08-30T15:04:16.446Z,15.02
2022-08-30T15:05:16.925Z,15.01
2022-08-30T15:06:16.279Z,14.95
2022-08-30T15:07:16.294Z,14.92